Aviation Digital Data Service (ADDS)

Output produced by METARs form (1034 UTC 28 September 2021)
found at http://www.aviationweather.gov/metar/data/
 
KMKT 280956Z AUTO 13007KT 10SM CLR 13/11 A2992 RMK AO2 SLP131 T01280106
KMKT 280520Z 2806/2906 09004KT P6SM SKC 
     FM281500 15008KT P6SM SKC
       
KRST 280954Z AUTO 15007KT 10SM CLR 12/11 A2996 RMK AO2 SLP141 T01170106
KRST 280520Z 2806/2906 12005KT P6SM SKC 
     FM281500 15009KT P6SM SKC 
     FM290100 14005KT P6SM SKC
       
KMSP 280953Z 13005KT 10SM CLR 14/10 A2993 RMK AO2 SLP134 T01390100
KMSP 280909Z 2809/2912 14005KT P6SM SKC 
     FM281400 15007KT P6SM SKC 
     FM281800 16011KT P6SM SKC 
     FM290000 14007KT P6SM FEW250